Time;durP1;ratioP1;P1;durP2;ratioP2;P2;SDS_P1;SDS_P2;PMS_P1;PMS_P2;Temp;Humidity;BMP_temperature;BMP_pressure;BME280_temperature;BME280_humidity;BME280_pressure;Samples;Min_cycle;Max_cycle;Signal;HPM_P1;HPM_P2
2021/08/27 00:00:46;;;;;;;;;;;13.30;83.40;;;;;;5093229;28;20003;-60
2021/08/27 00:03:11;;;;;;;;;;;13.20;83.40;;;;;;5075615;28;19920;-60
2021/08/27 00:05:37;;;;;;;;;;;13.10;83.50;;;;;;5092812;28;19916;-66
2021/08/27 00:08:02;;;;;;;;;;;13.10;83.70;;;;;;5093864;28;19969;-62
2021/08/27 00:10:28;;;;;;;;;;;13.00;83.90;;;;;;5093669;28;19916;-59
2021/08/27 00:12:53;;;;;;;;;;;12.90;84.00;;;;;;5092907;28;19916;-59
2021/08/27 00:15:19;;;;;;;;;;;12.90;84.20;;;;;;5093239;28;19962;-60
2021/08/27 00:17:44;;;;;;;;;;;12.80;84.40;;;;;;5092311;28;19920;-59
2021/08/27 00:20:11;;;;;;;;;;;12.80;84.50;;;;;;5074874;28;19916;-60
2021/08/27 00:22:37;;;;;;;;;;;12.70;84.70;;;;;;5093119;28;19923;-59
2021/08/27 00:25:04;;;;;;;;;;;12.70;85.00;;;;;;5092594;28;19939;-60
2021/08/27 00:27:30;;;;;;;;;;;12.70;85.10;;;;;;5092166;28;19935;-60
2021/08/27 00:29:55;;;;;;;;;;;12.70;85.10;;;;;;5075289;28;19923;-59
2021/08/27 00:32:21;;;;;;;;;;;12.70;85.50;;;;;;5092167;28;20443;-60
2021/08/27 00:34:47;;;;;;;;;;;12.70;86.00;;;;;;5092921;28;19970;-60
2021/08/27 00:37:13;;;;;;;;;;;12.70;86.10;;;;;;5092010;28;20299;-59
2021/08/27 00:39:39;;;;;;;;;;;12.70;85.90;;;;;;5092269;28;19999;-59
2021/08/27 00:42:04;;;;;;;;;;;12.70;86.00;;;;;;5093033;28;19942;-60
2021/08/27 00:44:30;;;;;;;;;;;12.70;86.10;;;;;;5092716;28;20286;-59
2021/08/27 00:46:55;;;;;;;;;;;12.70;86.20;;;;;;5091399;28;20288;-59
2021/08/27 00:49:21;;;;;;;;;;;12.60;86.20;;;;;;5092532;28;19916;-59
2021/08/27 00:51:47;;;;;;;;;;;12.60;86.30;;;;;;5091906;28;19916;-60
2021/08/27 00:54:12;;;;;;;;;;;12.60;86.40;;;;;;5092558;28;19916;-59
2021/08/27 00:56:39;;;;;;;;;;;12.50;86.50;;;;;;5091504;28;19916;-59
2021/08/27 00:59:05;;;;;;;;;;;12.50;86.80;;;;;;5073612;28;19927;-60
2021/08/27 01:01:30;;;;;;;;;;;12.60;87.10;;;;;;5075792;28;19923;-59
2021/08/27 01:03:57;;;;;;;;;;;12.60;87.00;;;;;;5072958;28;19916;-60
2021/08/27 01:06:31;;;;;;;;;;;12.60;87.00;;;;;;5091677;28;20307;-59
2021/08/27 01:09:02;;;;;;;;;;;12.50;87.00;;;;;;5073573;28;19924;-59
2021/08/27 01:11:30;;;;;;;;;;;12.50;87.10;;;;;;5091939;28;19939;-59
2021/08/27 01:13:57;;;;;;;;;;;12.50;87.00;;;;;;5074346;28;19920;-59
2021/08/27 01:16:25;;;;;;;;;;;12.40;87.00;;;;;;5091836;28;19916;-60
2021/08/27 01:19:03;;;;;;;;;;;12.40;87.20;;;;;;5073618;28;20303;-60
2021/08/27 01:21:47;;;;;;;;;;;12.40;87.40;;;;;;5092317;28;19916;-59
2021/08/27 01:24:12;;;;;;;;;;;12.30;87.70;;;;;;5090640;28;20489;-60
2021/08/27 01:26:43;;;;;;;;;;;12.40;87.90;;;;;;5075924;28;19920;-59
2021/08/27 01:29:09;;;;;;;;;;;12.40;88.10;;;;;;5090981;28;20548;-60
2021/08/27 01:31:38;;;;;;;;;;;12.40;88.00;;;;;;5091838;28;19912;-59
2021/08/27 01:34:14;;;;;;;;;;;12.40;88.00;;;;;;5091562;28;19917;-62
2021/08/27 01:36:40;;;;;;;;;;;12.40;88.10;;;;;;5090867;28;19947;-57
2021/08/27 01:39:07;;;;;;;;;;;12.40;88.00;;;;;;5090742;28;19958;-60
2021/08/27 01:41:34;;;;;;;;;;;12.30;88.20;;;;;;5091433;28;19969;-59
2021/08/27 01:44:01;;;;;;;;;;;12.40;88.60;;;;;;5091409;28;20376;-60
2021/08/27 01:46:27;;;;;;;;;;;12.40;88.70;;;;;;5090786;28;19916;-60
2021/08/27 01:48:53;;;;;;;;;;;12.40;88.70;;;;;;5090569;28;20299;-60
2021/08/27 01:51:19;;;;;;;;;;;12.40;88.70;;;;;;5091617;28;19923;-59
2021/08/27 01:53:45;;;;;;;;;;;12.50;88.70;;;;;;5090986;28;19920;-60
2021/08/27 01:56:11;;;;;;;;;;;12.50;88.60;;;;;;5092794;28;19916;-59
2021/08/27 01:58:37;;;;;;;;;;;12.50;88.50;;;;;;5090918;28;19923;-60
2021/08/27 02:01:03;;;;;;;;;;;12.40;88.30;;;;;;5090822;28;19916;-60
2021/08/27 02:03:30;;;;;;;;;;;12.40;88.60;;;;;;5091108;28;19923;-60
2021/08/27 02:05:57;;;;;;;;;;;12.40;89.00;;;;;;5090436;28;19939;-60
2021/08/27 02:08:23;;;;;;;;;;;12.50;89.20;;;;;;5072278;28;19927;-60
2021/08/27 02:10:49;;;;;;;;;;;12.50;89.40;;;;;;5091214;28;19916;-60
2021/08/27 02:13:15;;;;;;;;;;;12.60;89.30;;;;;;5071770;28;19954;-60
2021/08/27 02:15:41;;;;;;;;;;;12.70;89.40;;;;;;5072787;28;20368;-60
2021/08/27 02:18:06;;;;;;;;;;;12.80;89.80;;;;;;5072015;28;19916;-60
2021/08/27 02:20:33;;;;;;;;;;;12.80;89.10;;;;;;5055523;28;19916;-60
2021/08/27 02:23:01;;;;;;;;;;;12.80;88.90;;;;;;5091142;28;19923;-60
2021/08/27 02:25:28;;;;;;;;;;;12.90;88.90;;;;;;5089935;28;19926;-60
2021/08/27 02:27:54;;;;;;;;;;;12.90;88.90;;;;;;5089723;28;19920;-60
2021/08/27 02:30:21;;;;;;;;;;;12.90;88.80;;;;;;5090303;28;20376;-59
2021/08/27 02:32:47;;;;;;;;;;;12.90;88.80;;;;;;5091095;28;19958;-59
2021/08/27 02:35:14;;;;;;;;;;;13.00;88.80;;;;;;5091490;28;19998;-60
2021/08/27 02:37:40;;;;;;;;;;;13.00;88.70;;;;;;5091239;28;19916;-60
2021/08/27 02:40:05;;;;;;;;;;;13.00;88.70;;;;;;5091266;28;19916;-60
2021/08/27 02:42:31;;;;;;;;;;;13.00;88.40;;;;;;5091994;28;19916;-64
2021/08/27 02:44:58;;;;;;;;;;;13.00;88.40;;;;;;5091069;28;19923;-63
2021/08/27 02:47:24;;;;;;;;;;;13.10;88.40;;;;;;5091196;28;19924;-64
2021/08/27 02:49:50;;;;;;;;;;;13.10;88.40;;;;;;5091407;28;20337;-63
2021/08/27 02:52:18;;;;;;;;;;;13.10;88.40;;;;;;5091144;28;19951;-71
2021/08/27 02:54:50;;;;;;;;;;;13.10;88.30;;;;;;5092464;28;19923;-64
2021/08/27 02:57:16;;;;;;;;;;;13.20;88.80;;;;;;5090742;28;19920;-63
2021/08/27 02:59:43;;;;;;;;;;;13.20;88.30;;;;;;5091554;28;20329;-63
2021/08/27 03:02:15;;;;;;;;;;;13.20;88.30;;;;;;5091437;28;19916;-64
2021/08/27 03:04:59;;;;;;;;;;;13.20;88.10;;;;;;5072817;28;20375;-64
2021/08/27 03:07:25;;;;;;;;;;;13.20;88.00;;;;;;5091037;28;19920;-63
2021/08/27 03:10:08;;;;;;;;;;;13.30;87.90;;;;;;5090880;28;20621;-64
2021/08/27 03:12:41;;;;;;;;;;;13.30;87.90;;;;;;5091049;28;19917;-64
2021/08/27 03:15:08;;;;;;;;;;;13.30;87.90;;;;;;5094917;28;19920;-64
2021/08/27 03:17:37;;;;;;;;;;;13.30;87.90;;;;;;5094896;28;19916;-63
2021/08/27 03:20:15;;;;;;;;;;;13.30;87.90;;;;;;5059792;28;20333;-63
2021/08/27 03:22:59;;;;;;;;;;;13.30;87.90;;;;;;5093825;28;19941;-64
2021/08/27 03:25:26;;;;;;;;;;;13.40;87.80;;;;;;5094715;28;20384;-64
2021/08/27 03:27:55;;;;;;;;;;;13.40;87.80;;;;;;5094668;28;20011;-63
2021/08/27 03:30:22;;;;;;;;;;;13.40;87.70;;;;;;5076221;28;19979;-63
2021/08/27 03:32:55;;;;;;;;;;;13.40;87.80;;;;;;5094942;28;19916;-64
2021/08/27 03:35:22;;;;;;;;;;;13.40;87.70;;;;;;5076215;28;19916;-63
2021/08/27 03:37:48;;;;;;;;;;;13.40;87.60;;;;;;5094525;28;19920;-64
2021/08/27 03:40:14;;;;;;;;;;;13.40;87.60;;;;;;5094821;28;19981;-63
2021/08/27 03:42:40;;;;;;;;;;;13.30;87.50;;;;;;5076310;28;19920;-63
2021/08/27 03:45:06;;;;;;;;;;;13.40;87.70;;;;;;5076497;28;20001;-63
2021/08/27 03:47:32;;;;;;;;;;;13.40;87.70;;;;;;5094307;28;19927;-64
2021/08/27 03:49:57;;;;;;;;;;;13.40;87.60;;;;;;5094192;28;19916;-65
2021/08/27 03:52:23;;;;;;;;;;;13.30;87.50;;;;;;5094504;28;19916;-64
2021/08/27 03:54:49;;;;;;;;;;;13.30;87.50;;;;;;5093915;28;19916;-63
2021/08/27 03:57:16;;;;;;;;;;;13.30;87.60;;;;;;5075935;28;19916;-64
2021/08/27 03:59:41;;;;;;;;;;;13.30;87.60;;;;;;5094405;28;20300;-64
2021/08/27 04:02:09;;;;;;;;;;;13.30;87.60;;;;;;5093800;28;19916;-63
2021/08/27 04:04:35;;;;;;;;;;;13.30;87.70;;;;;;5094153;28;19917;-63
2021/08/27 04:07:01;;;;;;;;;;;13.30;87.70;;;;;;5070533;28;19921;-63
2021/08/27 04:09:28;;;;;;;;;;;13.30;87.60;;;;;;5093608;28;19960;-64
2021/08/27 04:11:54;;;;;;;;;;;13.30;87.70;;;;;;5094160;28;19938;-63
2021/08/27 04:14:20;;;;;;;;;;;13.30;87.80;;;;;;5093678;28;19916;-63
2021/08/27 04:16:45;;;;;;;;;;;13.40;87.80;;;;;;5093306;28;19917;-63
2021/08/27 04:19:14;;;;;;;;;;;13.40;87.80;;;;;;5093799;28;19918;-64
2021/08/27 04:21:40;;;;;;;;;;;13.40;87.80;;;;;;5093460;28;19923;-64
2021/08/27 04:24:06;;;;;;;;;;;13.40;87.80;;;;;;5093688;28;19923;-64
2021/08/27 04:26:32;;;;;;;;;;;13.50;87.90;;;;;;5093026;28;19920;-63
2021/08/27 04:28:59;;;;;;;;;;;13.50;87.90;;;;;;5091314;28;25488;-63
2021/08/27 04:31:25;;;;;;;;;;;13.50;87.80;;;;;;5092196;28;19920;-64
2021/08/27 04:33:50;;;;;;;;;;;13.50;87.80;;;;;;5093172;28;19920;-63
2021/08/27 04:36:19;;;;;;;;;;;13.50;87.80;;;;;;5090187;28;19958;-63
2021/08/27 04:38:44;;;;;;;;;;;13.50;88.00;;;;;;5093263;28;19920;-63
2021/08/27 04:41:10;;;;;;;;;;;13.50;87.90;;;;;;5092988;28;19954;-63
2021/08/27 04:43:36;;;;;;;;;;;13.50;88.00;;;;;;5093517;28;19920;-64
2021/08/27 04:46:01;;;;;;;;;;;13.50;88.00;;;;;;5089873;28;19916;-63
2021/08/27 04:48:27;;;;;;;;;;;13.50;88.20;;;;;;5091516;28;20583;-63
2021/08/27 04:50:53;;;;;;;;;;;13.50;88.40;;;;;;5093261;28;19920;-63
2021/08/27 04:53:18;;;;;;;;;;;13.60;88.30;;;;;;5092844;28;19951;-63
2021/08/27 04:55:44;;;;;;;;;;;13.60;88.40;;;;;;5093194;28;19923;-64
2021/08/27 04:58:09;;;;;;;;;;;13.60;88.50;;;;;;5092910;28;19924;-64
2021/08/27 05:00:35;;;;;;;;;;;13.60;88.60;;;;;;5092692;28;19916;-63
2021/08/27 05:03:00;;;;;;;;;;;13.60;88.70;;;;;;5087864;28;19916;-63
2021/08/27 05:05:26;;;;;;;;;;;13.70;88.80;;;;;;5065814;28;19999;-64
2021/08/27 05:07:52;;;;;;;;;;;13.70;89.00;;;;;;5064614;28;19920;-63
2021/08/27 05:10:17;;;;;;;;;;;13.80;89.10;;;;;;5082436;28;19963;-63
2021/08/27 05:12:43;;;;;;;;;;;13.80;89.10;;;;;;5073151;28;20027;-63
2021/08/27 05:15:09;;;;;;;;;;;13.80;89.20;;;;;;5055116;28;19912;-64
2021/08/27 05:17:35;;;;;;;;;;;13.90;89.30;;;;;;5072274;28;20399;-64
2021/08/27 05:20:01;;;;;;;;;;;13.90;89.30;;;;;;5071890;28;19921;-64
2021/08/27 05:22:26;;;;;;;;;;;14.00;89.40;;;;;;5072141;28;20312;-64
2021/08/27 05:24:52;;;;;;;;;;;14.00;89.50;;;;;;5071440;28;19917;-63
2021/08/27 05:27:17;;;;;;;;;;;14.10;89.60;;;;;;5071997;28;19940;-63
2021/08/27 05:29:43;;;;;;;;;;;14.20;89.80;;;;;;5072172;28;19948;-64
2021/08/27 05:32:09;;;;;;;;;;;14.30;89.70;;;;;;5071772;28;19916;-63
2021/08/27 05:34:35;;;;;;;;;;;14.40;89.60;;;;;;5072632;28;19943;-64
2021/08/27 05:37:02;;;;;;;;;;;14.50;89.40;;;;;;5090936;28;19920;-64
2021/08/27 05:39:28;;;;;;;;;;;14.50;89.60;;;;;;5092337;28;19929;-63
2021/08/27 05:41:54;;;;;;;;;;;14.60;89.70;;;;;;5096269;28;19920;-64
2021/08/27 05:44:20;;;;;;;;;;;14.70;89.60;;;;;;5094299;28;19916;-64
2021/08/27 05:46:46;;;;;;;;;;;14.70;89.20;;;;;;5091660;28;20395;-64
2021/08/27 05:49:11;;;;;;;;;;;14.70;89.40;;;;;;5092284;28;19943;-63
2021/08/27 05:51:37;;;;;;;;;;;14.70;89.40;;;;;;5091868;28;20299;-63
2021/08/27 05:54:03;;;;;;;;;;;14.70;89.10;;;;;;5092192;28;19916;-64
2021/08/27 05:56:29;;;;;;;;;;;14.60;89.10;;;;;;5092108;28;20509;-64
2021/08/27 05:58:55;;;;;;;;;;;14.60;89.30;;;;;;5091604;28;20403;-65
2021/08/27 06:01:20;;;;;;;;;;;14.60;89.60;;;;;;5092020;28;19924;-64
2021/08/27 06:03:46;;;;;;;;;;;14.60;89.60;;;;;;5091952;28;19969;-64
2021/08/27 06:06:11;;;;;;;;;;;14.60;89.60;;;;;;5082261;28;19924;-64
2021/08/27 06:08:37;;;;;;;;;;;14.60;89.70;;;;;;5087171;28;19982;-64
2021/08/27 06:11:03;;;;;;;;;;;14.50;89.80;;;;;;5079625;28;20311;-64
2021/08/27 06:13:29;;;;;;;;;;;14.60;90.00;;;;;;5079282;28;19923;-64
2021/08/27 06:15:55;;;;;;;;;;;14.60;90.10;;;;;;5079138;28;19953;-64
2021/08/27 06:18:21;;;;;;;;;;;14.60;90.10;;;;;;5081088;28;20292;-64
2021/08/27 06:20:49;;;;;;;;;;;14.70;90.20;;;;;;5083004;28;19916;-64
2021/08/27 06:23:14;;;;;;;;;;;14.70;90.20;;;;;;5079384;28;19918;-64
2021/08/27 06:25:40;;;;;;;;;;;14.80;90.20;;;;;;5082408;28;19920;-63
2021/08/27 06:28:05;;;;;;;;;;;14.80;90.20;;;;;;5066457;28;19927;-64
2021/08/27 06:30:31;;;;;;;;;;;14.80;90.20;;;;;;5082139;28;19923;-64
2021/08/27 06:32:56;;;;;;;;;;;14.80;90.20;;;;;;5079067;28;22490;-64
2021/08/27 06:35:22;;;;;;;;;;;14.90;90.30;;;;;;5079408;28;19966;-64
2021/08/27 06:40:32;;;;;;;;;;;15.00;90.50;;;;;;5091402;28;19923;-64
2021/08/27 06:42:58;;;;;;;;;;;15.10;90.50;;;;;;5091588;28;19932;-65
2021/08/27 06:45:23;;;;;;;;;;;15.10;90.50;;;;;;5072996;28;19952;-64
2021/08/27 06:47:49;;;;;;;;;;;15.20;90.60;;;;;;5090495;28;19923;-64
2021/08/27 06:50:15;;;;;;;;;;;15.30;90.50;;;;;;5095791;28;19920;-64
2021/08/27 06:52:40;;;;;;;;;;;15.30;90.40;;;;;;5095112;28;20439;-64
2021/08/27 06:55:06;;;;;;;;;;;15.30;90.40;;;;;;5095629;28;19920;-64
2021/08/27 06:57:32;;;;;;;;;;;15.30;90.30;;;;;;5060072;28;20368;-63
2021/08/27 06:59:57;;;;;;;;;;;15.30;90.40;;;;;;5095500;28;19920;-63
2021/08/27 07:02:23;;;;;;;;;;;15.30;90.40;;;;;;5077469;28;19924;-65
2021/08/27 07:04:48;;;;;;;;;;;15.30;90.50;;;;;;5094800;28;19924;-63
2021/08/27 07:07:14;;;;;;;;;;;15.40;90.60;;;;;;5094796;28;19916;-64
2021/08/27 07:09:40;;;;;;;;;;;15.40;90.60;;;;;;5095285;28;19964;-64
2021/08/27 07:12:06;;;;;;;;;;;15.40;90.60;;;;;;5094764;28;19924;-63
2021/08/27 07:14:31;;;;;;;;;;;15.40;90.70;;;;;;5095031;28;19921;-64
2021/08/27 07:16:58;;;;;;;;;;;15.50;90.70;;;;;;5094416;28;19917;-63
2021/08/27 07:19:25;;;;;;;;;;;15.50;90.70;;;;;;5095136;28;19917;-63
2021/08/27 07:21:50;;;;;;;;;;;15.50;90.70;;;;;;5094970;28;19916;-64
2021/08/27 07:24:16;;;;;;;;;;;15.50;90.60;;;;;;5094585;28;19922;-63
2021/08/27 07:26:42;;;;;;;;;;;15.60;90.60;;;;;;5094700;28;19916;-64
2021/08/27 07:29:07;;;;;;;;;;;15.60;90.80;;;;;;5093408;28;20316;-64
2021/08/27 07:31:33;;;;;;;;;;;15.60;91.10;;;;;;5094467;28;19920;-63
2021/08/27 07:33:59;;;;;;;;;;;15.60;90.80;;;;;;5094564;28;19934;-63
2021/08/27 07:36:24;;;;;;;;;;;15.70;90.70;;;;;;5094655;28;19916;-64
2021/08/27 07:38:50;;;;;;;;;;;15.60;90.60;;;;;;5092068;28;20002;-63
2021/08/27 07:41:15;;;;;;;;;;;15.60;90.70;;;;;;5094552;28;20342;-64
2021/08/27 07:43:41;;;;;;;;;;;15.50;90.60;;;;;;5094085;28;19916;-62
2021/08/27 07:46:07;;;;;;;;;;;15.50;90.80;;;;;;5094523;28;19912;-64
2021/08/27 07:48:32;;;;;;;;;;;15.50;90.80;;;;;;5093967;28;20024;-64
2021/08/27 07:50:58;;;;;;;;;;;15.50;91.00;;;;;;5094032;28;20273;-64
2021/08/27 07:53:24;;;;;;;;;;;15.60;91.00;;;;;;5076241;28;20338;-64
2021/08/27 07:55:49;;;;;;;;;;;15.80;91.40;;;;;;5094126;28;20345;-64
2021/08/27 07:58:15;;;;;;;;;;;16.20;92.20;;;;;;5093147;28;19924;-64
2021/08/27 08:00:41;;;;;;;;;;;16.80;92.70;;;;;;5093006;28;19923;-64
2021/08/27 08:03:07;;;;;;;;;;;17.20;92.10;;;;;;5093773;28;20014;-64
2021/08/27 08:05:33;;;;;;;;;;;17.50;91.90;;;;;;5093015;28;19940;-64
2021/08/27 08:07:59;;;;;;;;;;;17.90;92.30;;;;;;5075248;28;19977;-64
2021/08/27 08:10:25;;;;;;;;;;;18.60;92.80;;;;;;5093670;28;19951;-64
2021/08/27 08:12:50;;;;;;;;;;;19.60;93.20;;;;;;5093299;28;19949;-65
2021/08/27 08:15:19;;;;;;;;;;;20.30;92.30;;;;;;5093648;28;19916;-64
2021/08/27 08:17:44;;;;;;;;;;;20.80;90.60;;;;;;5092857;28;20007;-63
2021/08/27 08:20:10;;;;;;;;;;;20.60;87.60;;;;;;5093566;28;20023;-64
2021/08/27 08:22:36;;;;;;;;;;;20.30;85.70;;;;;;5093312;28;19977;-64
2021/08/27 08:25:02;;;;;;;;;;;19.80;84.70;;;;;;5092935;28;20258;-64
2021/08/27 08:27:33;;;;;;;;;;;19.50;84.80;;;;;;5077117;28;19920;-64
2021/08/27 08:29:59;;;;;;;;;;;19.20;84.90;;;;;;5054956;28;20325;-64
2021/08/27 08:32:24;;;;;;;;;;;18.90;84.70;;;;;;5073206;28;19958;-64
2021/08/27 08:34:50;;;;;;;;;;;18.80;85.30;;;;;;5072960;28;19967;-64
2021/08/27 08:37:16;;;;;;;;;;;18.80;85.70;;;;;;5072017;28;19928;-63
2021/08/27 08:39:41;;;;;;;;;;;18.70;85.40;;;;;;5073029;28;20281;-63
2021/08/27 08:42:07;;;;;;;;;;;18.50;84.60;;;;;;5092036;22;20290;-63
2021/08/27 08:44:33;;;;;;;;;;;18.50;85.00;;;;;;5075497;28;19981;-62
2021/08/27 08:46:59;;;;;;;;;;;18.40;84.90;;;;;;5092843;28;20011;-62
2021/08/27 08:49:27;;;;;;;;;;;18.50;85.70;;;;;;5092564;28;19920;-62
2021/08/27 08:51:53;;;;;;;;;;;18.70;85.50;;;;;;5076030;28;20010;-62
2021/08/27 08:54:19;;;;;;;;;;;18.80;85.60;;;;;;5092945;28;19916;-60
2021/08/27 08:56:45;;;;;;;;;;;18.70;84.90;;;;;;5073872;28;19930;-61
2021/08/27 08:59:11;;;;;;;;;;;18.70;84.40;;;;;;5092802;28;20391;-60
2021/08/27 09:01:37;;;;;;;;;;;18.50;84.00;;;;;;5092606;28;19973;-60
2021/08/27 09:04:03;;;;;;;;;;;18.50;84.50;;;;;;5091951;28;19916;-61
2021/08/27 09:06:29;;;;;;;;;;;18.50;84.40;;;;;;5092584;28;19965;-61
2021/08/27 09:08:59;;;;;;;;;;;18.30;83.70;;;;;;5090943;28;19931;-60
2021/08/27 09:11:26;;;;;;;;;;;18.10;83.80;;;;;;5091943;28;20002;-60
2021/08/27 09:13:54;;;;;;;;;;;18.10;84.20;;;;;;5092460;28;19932;-60
2021/08/27 09:16:22;;;;;;;;;;;18.00;84.50;;;;;;5091980;28;19916;-61
2021/08/27 09:18:49;;;;;;;;;;;18.20;85.60;;;;;;5090459;28;19916;-61
2021/08/27 09:21:36;;;;;;;;;;;18.50;85.70;;;;;;5092430;28;20003;-60
2021/08/27 09:24:17;;;;;;;;;;;18.80;85.90;;;;;;5091754;28;20300;-62
2021/08/27 09:26:44;;;;;;;;;;;19.50;88.30;;;;;;5092178;28;19948;-60
2021/08/27 09:29:10;;;;;;;;;;;21.30;90.60;;;;;;5091677;28;20269;-61
2021/08/27 09:31:37;;;;;;;;;;;24.90;91.00;;;;;;5092116;28;19916;-61
2021/08/27 09:34:03;;;;;;;;;;;28.40;86.80;;;;;;5090973;28;19924;-61
2021/08/27 09:36:29;;;;;;;;;;;30.30;78.30;;;;;;5091904;28;19916;-61
2021/08/27 09:39:00;;;;;;;;;;;29.80;68.90;;;;;;5091793;28;20325;-61
2021/08/27 09:41:26;;;;;;;;;;;29.00;67.00;;;;;;5091634;28;19955;-61
2021/08/27 09:43:54;;;;;;;;;;;30.00;70.10;;;;;;5091956;28;19958;-61
2021/08/27 09:46:37;;;;;;;;;;;30.30;63.80;;;;;;5092168;28;19961;-61
2021/08/27 09:49:22;;;;;;;;;;;29.50;60.60;;;;;;5091362;28;19920;-61
2021/08/27 09:51:48;;;;;;;;;;;28.20;56.90;;;;;;5091257;28;20135;-61
2021/08/27 09:54:21;;;;;;;;;;;26.40;56.30;;;;;;5091827;28;20364;-61
2021/08/27 09:56:48;;;;;;;;;;;24.90;57.20;;;;;;5090034;28;19931;-60
2021/08/27 09:59:14;;;;;;;;;;;23.80;58.70;;;;;;5091298;28;19913;-61
2021/08/27 10:01:47;;;;;;;;;;;22.40;60.20;;;;;;5091679;28;19923;-61
2021/08/27 10:04:13;;;;;;;;;;;22.30;60.70;;;;;;5091235;28;20341;-61
2021/08/27 10:06:39;;;;;;;;;;;21.60;61.40;;;;;;5083724;28;20058;-60
2021/08/27 10:09:05;;;;;;;;;;;21.10;62.40;;;;;;5081145;28;20011;-60
2021/08/27 10:11:32;;;;;;;;;;;20.50;63.50;;;;;;5080141;28;19924;-60
2021/08/27 10:13:58;;;;;;;;;;;20.40;64.00;;;;;;5091194;28;19917;-60
2021/08/27 10:16:24;;;;;;;;;;;20.20;65.20;;;;;;5090629;28;19927;-61
2021/08/27 10:18:50;;;;;;;;;;;20.50;67.30;;;;;;5090840;28;19955;-61
2021/08/27 10:21:16;;;;;;;;;;;20.80;67.50;;;;;;5091795;28;20356;-61
2021/08/27 10:23:45;;;;;;;;;;;21.00;66.30;;;;;;5090273;28;20009;-61
2021/08/27 10:26:18;;;;;;;;;;;21.10;65.50;;;;;;5091367;28;19920;-61
2021/08/27 10:28:44;;;;;;;;;;;20.90;64.80;;;;;;5089268;28;20011;-61
2021/08/27 10:31:11;;;;;;;;;;;20.80;65.60;;;;;;5091297;28;19916;-62
2021/08/27 10:33:40;;;;;;;;;;;20.60;65.70;;;;;;5091499;28;20005;-62
2021/08/27 10:36:06;;;;;;;;;;;20.60;67.00;;;;;;5090983;28;19916;-63
2021/08/27 10:38:38;;;;;;;;;;;20.80;67.90;;;;;;5090834;28;19916;-63
2021/08/27 10:41:11;;;;;;;;;;;21.70;70.40;;;;;;5090447;28;19920;-62
2021/08/27 10:43:56;;;;;;;;;;;23.60;70.30;;;;;;5090971;28;19927;-63
2021/08/27 10:46:22;;;;;;;;;;;25.20;67.30;;;;;;5090896;28;19916;-63
2021/08/27 10:48:52;;;;;;;;;;;27.20;66.10;;;;;;5090817;28;19928;-64
2021/08/27 10:51:31;;;;;;;;;;;29.20;65.00;;;;;;5090663;28;20011;-63
2021/08/27 10:53:56;;;;;;;;;;;30.30;60.50;;;;;;5089397;28;19916;-63
2021/08/27 10:56:40;;;;;;;;;;;30.00;54.80;;;;;;5079844;28;20395;-64
2021/08/27 10:59:07;;;;;;;;;;;28.50;51.50;;;;;;5078678;28;20093;-66
2021/08/27 11:01:34;;;;;;;;;;;26.40;51.30;;;;;;5078329;28;19921;-65
2021/08/27 11:04:04;;;;;;;;;;;24.90;52.30;;;;;;5080602;28;19916;-65
2021/08/27 11:06:30;;;;;;;;;;;23.80;53.90;;;;;;5079560;28;19916;-65
2021/08/27 11:09:15;;;;;;;;;;;22.90;55.20;;;;;;5080360;28;19916;-66
2021/08/27 11:11:40;;;;;;;;;;;22.00;57.60;;;;;;5078965;28;19971;-65
2021/08/27 11:14:16;;;;;;;;;;;22.00;58.20;;;;;;5078909;28;19955;-65
2021/08/27 11:16:42;;;;;;;;;;;22.00;59.10;;;;;;5078956;28;19931;-64
2021/08/27 11:19:23;;;;;;;;;;;22.60;61.20;;;;;;5081367;28;19916;-65
2021/08/27 11:21:53;;;;;;;;;;;24.60;64.30;;;;;;5079593;28;20007;-66
2021/08/27 11:24:19;;;;;;;;;;;27.70;63.70;;;;;;5080227;28;19962;-66
2021/08/27 11:26:56;;;;;;;;;;;28.70;58.10;;;;;;5078838;28;20046;-67
2021/08/27 11:29:28;;;;;;;;;;;30.70;57.90;;;;;;5079004;28;19928;-67
2021/08/27 11:31:54;;;;;;;;;;;33.40;55.90;;;;;;5076808;28;20038;-67
2021/08/27 11:34:24;;;;;;;;;;;35.60;50.80;;;;;;5062369;28;19956;-67
2021/08/27 11:36:50;;;;;;;;;;;37.30;46.40;;;;;;5084216;28;19920;-67
2021/08/27 11:39:16;;;;;;;;;;;36.30;41.40;;;;;;5082966;28;19984;-66
2021/08/27 11:41:42;;;;;;;;;;;33.80;38.80;;;;;;5083118;28;20401;-65
2021/08/27 11:44:09;;;;;;;;;;;32.20;41.50;;;;;;5081139;28;19920;-64
2021/08/27 11:46:35;;;;;;;;;;;32.70;43.70;;;;;;5082097;28;19935;-64
2021/08/27 11:49:07;;;;;;;;;;;31.80;40.10;;;;;;5083002;28;19924;-64
2021/08/27 11:51:35;;;;;;;;;;;29.90;39.20;;;;;;5075810;28;19916;-63
2021/08/27 11:54:18;;;;;;;;;;;27.70;40.30;;;;;;5082681;28;19928;-66
2021/08/27 11:56:48;;;;;;;;;;;25.90;42.00;;;;;;5067018;28;20292;-67
2021/08/27 11:59:19;;;;;;;;;;;24.20;44.00;;;;;;5064882;28;20054;-66
2021/08/27 12:01:44;;;;;;;;;;;21.80;48.60;;;;;;5060751;28;19932;-66
2021/08/27 12:04:21;;;;;;;;;;;21.60;49.50;;;;;;5065685;28;19924;-65
2021/08/27 12:06:46;;;;;;;;;;;21.10;51.60;;;;;;5054576;28;19917;-66
2021/08/27 12:09:12;;;;;;;;;;;20.80;53.40;;;;;;5073481;28;19927;-66
2021/08/27 12:11:39;;;;;;;;;;;20.80;56.00;;;;;;5072819;28;20318;-65
2021/08/27 12:14:05;;;;;;;;;;;20.80;56.60;;;;;;5072013;28;20360;-64
2021/08/27 12:16:31;;;;;;;;;;;21.10;57.60;;;;;;5071551;28;19923;-64
2021/08/27 12:18:57;;;;;;;;;;;21.40;57.80;;;;;;5072414;28;19923;-62
2021/08/27 12:21:24;;;;;;;;;;;21.60;57.40;;;;;;5072071;28;19939;-63
2021/08/27 12:24:02;;;;;;;;;;;21.60;57.90;;;;;;5072484;28;19923;-66
2021/08/27 12:26:29;;;;;;;;;;;21.50;58.00;;;;;;5070303;28;19924;-64
2021/08/27 12:28:56;;;;;;;;;;;21.50;59.00;;;;;;5069859;28;19981;-63
2021/08/27 12:31:22;;;;;;;;;;;21.60;60.30;;;;;;5069715;28;19951;-64
2021/08/27 12:33:49;;;;;;;;;;;22.00;61.60;;;;;;5047121;28;19960;-63
2021/08/27 12:36:15;;;;;;;;;;;22.70;62.60;;;;;;5067781;28;19916;-63
2021/08/27 12:38:42;;;;;;;;;;;23.20;62.10;;;;;;5063996;28;20407;-64
2021/08/27 12:41:11;;;;;;;;;;;23.50;61.20;;;;;;5057790;28;20281;-64
2021/08/27 12:43:37;;;;;;;;;;;24.00;60.30;;;;;;5057965;28;19921;-63
2021/08/27 12:46:03;;;;;;;;;;;24.60;59.30;;;;;;5048403;28;19932;-64
2021/08/27 12:48:29;;;;;;;;;;;24.90;58.20;;;;;;5065606;28;20012;-62
2021/08/27 12:50:58;;;;;;;;;;;25.00;57.40;;;;;;5062730;28;19924;-61
2021/08/27 12:53:27;;;;;;;;;;;24.70;57.00;;;;;;5059732;28;19917;-61
2021/08/27 12:56:11;;;;;;;;;;;24.10;56.10;;;;;;5061381;28;19970;-61
2021/08/27 12:58:38;;;;;;;;;;;23.30;56.70;;;;;;5059685;28;19920;-61
2021/08/27 13:01:14;;;;;;;;;;;22.50;57.10;;;;;;5061457;28;19920;-61
2021/08/27 13:03:40;;;;;;;;;;;21.80;57.80;;;;;;5062344;28;19924;-65
2021/08/27 13:06:06;;;;;;;;;;;21.40;59.40;;;;;;5063071;28;20605;-65
2021/08/27 13:08:31;;;;;;;;;;;21.30;60.60;;;;;;5081792;28;19978;-65
2021/08/27 13:10:58;;;;;;;;;;;21.40;61.30;;;;;;5066476;28;19928;-66
2021/08/27 13:13:28;;;;;;;;;;;21.50;61.50;;;;;;5049796;28;19940;-65
2021/08/27 13:16:24;;;;;;;;;;;21.50;61.90;;;;;;5082305;28;19916;-65
2021/08/27 13:18:55;;;;;;;;;;;21.60;62.20;;;;;;5047826;28;19948;-65
2021/08/27 13:21:32;;;;;;;;;;;21.50;61.60;;;;;;5062799;28;19952;-65
2021/08/27 13:24:05;;;;;;;;;;;21.40;61.90;;;;;;5060647;28;20063;-68
2021/08/27 13:26:32;;;;;;;;;;;21.30;61.80;;;;;;5064490;28;19921;-65
2021/08/27 13:28:58;;;;;;;;;;;21.10;61.70;;;;;;5066528;28;19921;-65
2021/08/27 13:31:24;;;;;;;;;;;21.00;62.90;;;;;;5059745;28;20004;-65
2021/08/27 13:33:49;;;;;;;;;;;21.10;64.00;;;;;;5069373;28;20381;-65
2021/08/27 13:36:15;;;;;;;;;;;21.10;63.60;;;;;;5047928;28;19924;-66
2021/08/27 13:38:41;;;;;;;;;;;21.10;63.60;;;;;;5070218;28;19923;-65
2021/08/27 13:41:07;;;;;;;;;;;21.00;63.20;;;;;;5071620;28;19916;-65
2021/08/27 13:43:32;;;;;;;;;;;21.10;63.80;;;;;;5071992;28;19932;-66
2021/08/27 13:45:58;;;;;;;;;;;21.20;64.30;;;;;;5078936;28;20319;-66
2021/08/27 13:48:23;;;;;;;;;;;21.40;63.30;;;;;;5071233;28;19917;-65
2021/08/27 13:50:49;;;;;;;;;;;21.40;63.40;;;;;;5074667;28;19970;-67
2021/08/27 13:53:15;;;;;;;;;;;21.50;63.00;;;;;;5078812;28;19954;-66
2021/08/27 13:55:40;;;;;;;;;;;21.40;62.50;;;;;;5081679;28;19923;-66
2021/08/27 13:58:06;;;;;;;;;;;21.20;62.50;;;;;;5068812;28;19916;-65
2021/08/27 14:00:32;;;;;;;;;;;21.20;62.80;;;;;;5070551;28;19917;-66
2021/08/27 14:02:58;;;;;;;;;;;21.20;64.20;;;;;;5070544;28;19917;-66
2021/08/27 14:05:23;;;;;;;;;;;21.40;63.60;;;;;;5064065;28;19960;-65
2021/08/27 14:07:49;;;;;;;;;;;21.30;63.00;;;;;;5059241;28;20368;-67
2021/08/27 14:10:14;;;;;;;;;;;21.20;63.00;;;;;;5059366;28;20387;-66
2021/08/27 14:12:43;;;;;;;;;;;21.00;63.30;;;;;;5060083;28;19924;-66
2021/08/27 14:15:11;;;;;;;;;;;20.70;63.20;;;;;;5060883;28;19962;-65
2021/08/27 14:17:37;;;;;;;;;;;20.60;63.60;;;;;;5056960;28;20313;-66
2021/08/27 14:20:04;;;;;;;;;;;20.40;64.00;;;;;;5060348;28;19913;-66